KLAS/LAS METAR and TAF weather

Enter ICAO airport designator
Station Type Date Time Source
KLAS METAR 2020/01/18 15:56 UTC NOAA

KLAS 181556Z 28005KT 10SM BKN250 05/M07 A3039 RMK AO2 SLP293 T00501072


Station Type Date Time Source
KLAS Decoded METAR 2020/01/18 15:56 UTC NOAA

MCCARRAN INTERNATIONAL AIRPORT , NV, United States (KLAS) 36-07N 115-16W 636M
Jan 18, 2020 - 10:56 AM EST / 2020.01.18 1556 UTC
Wind: from the W (280 degrees) at 6 MPH (5 KT):0
Visibility: 10 mile(s):0
Sky conditions: mostly cloudy
Temperature: 41.0 F (5.0 C)
Dew Point: 19.0 F (-7.2 C)
Relative Humidity: 40%
Pressure (altimeter): 30.39 in. Hg (1029 hPa)
ob: KLAS 181556Z 28005KT 10SM BKN250 05/M07 A3039 RMK AO2 SLP293 T00501072
cycle: 16

Station Type Date Time Source
KLAS TAF 2020/01/18 15:39 UTC NOAA

TAF
AMD KLAS 181437Z 1815/1918 VRB04KT P6SM FEW250
FM182100 05006KT P6SM FEW150 BKN250
FM190200 21007KT P6SM FEW150 BKN250

Example: see airport list